Adel, Iowa
Current Conditions -  °F | °C
As of 12:15 AM on Thursday 23 Oct 2014 (Local Time) from KPRO Reporting Station
Moderate Rain Moderate Rain  
Wind Chill: 54°   Ceiling: 3600
Heat Index: 54°   Visibility: 3mi
Dew Point: 52°   Wind: 6mph
Humidity: 94%   Direction: 170°S
Pressure: 30.1"   Gusts: NA
Location:  41.61°N, 94.02°W
Report Text: KPRO 230515Z AUTO 17005KT 3SM RA SCT031 BKN036 OVC046 12/11 A3010 RMK AO2 P0010 T01220112
Loading
Personal Weather Stations






























Interactive Weather Map
Tropical Storm Tracking
New forecast layout! Learn more

10-Day Weather Forecast

Advertisements
Track Severe Weather on mobile